Terminal Aerodrome Forecast
Issued by NWS

Home | Current Version | Previous Version | Graphics & Text | Print | Product List | Glossary On
Versions: 1 2 3 4 5 6 7 8 9 10 11 12 13 14 15 16 17 18 19 20 21 22 23 24
259
FTUS45 KGGW 221120
TAFOLF
TAF
KOLF 221120Z 2212/2312 VRB05KT P6SM SKC
     FM221600 28008KT P6SM SKC
     FM221900 29012KT P6SM SKC
     FM230300 30007KT P6SM BKN110=

USA.gov is the U.S. government's official web portal to all federal, state and local government web resources and services.